URSSURKK

Guest
Details From URSS - Sochi
To URKK - Pashkovskiy
Flight Number -
Tags Generated
Created
Modified
Stats Distance 102 nm / 188 km
Max Altitude 0 ft / 0 m
Waypoints 2
Social Downloads 2
Likes 0
Share VATSIM

Download

Looking for another format? Having issues loading an existing format? Contact us
Advertisement - Login to hide

Notes

Generated

Route

URSS URKK

ID Type Via Altitude Latitude Longitude Leg Dist Tot Dist Heading (true) Name
O URSS APT - 0 ft / 0 m 43.43576˚ 39.94578˚ - 0 nm - Sochi
O URKK APT - 0 ft / 0 m 45.02906˚ 39.14142˚ 101 nm 101 nm 340° / 340° -

Altitude Profile

Advertisement - Login to hide

URSS

Details ICAO URSS (AER)
Name Sochi
Region Russia
Timezone Europe/Moscow (UTC+3.0)
Stats Elevation 89 ft / 27 m (AMSL)
Location 43.444749° 39.947302°
Runways 2
Magnetic Variation 6.963° E

METAR

URSS 170630Z 05005MPS 9999 NSC 12/M01 Q1019 R02/090070 R06/090070 NOSIG RMK R06/09006MPS QFE762

Decode

TAF

TAF URSS 170457Z 1706/1806 06006MPS 9999 SCT100 TEMPO 1706/1708 04006G11MPS BECMG 1708/1709 15005G10MPS SCT030 SCT100 BECMG 1714/1716 05006MPS TEMPO 1716/1806 16007G13MPS 5000 -SHRA SCT020CB BKN100

Decode

Departure Runways

ID Width Length Bearing (true) Bearing (mag) Surface Threshold Offset Overrun Length
02 161 ft / 49 m 7,267 ft / 2,215 m 28.98° 22.02° Concrete 0 ft / 0 m 0 ft / 0 m
06 164 ft / 50 m 9,531 ft / 2,905 m 64.90° 57.94° Concrete 262 ft / 80 m 0 ft / 0 m
20 161 ft / 49 m 7,267 ft / 2,215 m 208.99° 202.03° Concrete 0 ft / 0 m 0 ft / 0 m
24 164 ft / 50 m 9,531 ft / 2,905 m 244.92° 237.96° Concrete 0 ft / 0 m 0 ft / 0 m

URKK

Details ICAO URKK (KRR)
Name PASHKOVSKIY
Region Russia
Timezone Europe/Moscow (UTC+3.0)
Stats Elevation 118 ft / 36 m (AMSL)
Location 45.034644° 39.170454°
Runways 2
Magnetic Variation 7.356° E

METAR

URKK 170630Z VRB01MPS CAVOK 05/02 Q1018 R23L/CLRD70 NOSIG RMK QFE760

Decode

TAF

TAF URKK 170455Z 1706/1806 10003G08MPS 9999 SCT020CB TEMPO 1715/1803 3100 -SHRA BR BKN011 BKN020CB

Decode

Destination Runways

ID Width Length Bearing (true) Bearing (mag) Surface Threshold Offset Overrun Length
05L 160 ft / 49 m 7,177 ft / 2,187 m 52.37° 45.01° Asphalt 0 ft / 0 m 160 ft / 49 m
05R 145 ft / 44 m 9,822 ft / 2,994 m 52.45° 45.09° Concrete 0 ft / 0 m 160 ft / 49 m
23L 145 ft / 44 m 9,822 ft / 2,994 m 232.47° 225.11° Concrete 0 ft / 0 m 160 ft / 49 m
23R 160 ft / 49 m 7,177 ft / 2,187 m 232.38° 225.02° Asphalt 0 ft / 0 m 160 ft / 49 m

Popular Alternatives